createdAt,value
2019-03-03T00:00:27.353Z,76.60
2019-03-03T00:02:56.019Z,77.10
2019-03-03T00:05:24.918Z,77.10
2019-03-03T00:07:53.529Z,77.70
2019-03-03T00:10:21.845Z,77.90
2019-03-03T00:12:50.201Z,78.20
2019-03-03T00:15:18.865Z,78.60
2019-03-03T00:17:47.288Z,78.70
2019-03-03T00:20:16.141Z,79.00
2019-03-03T00:22:44.657Z,79.70
2019-03-03T00:25:13.892Z,80.50
2019-03-03T00:27:42.650Z,80.50
2019-03-03T00:30:15.573Z,81.00
2019-03-03T00:32:43.885Z,81.00
2019-03-03T00:35:12.482Z,80.90
2019-03-03T00:37:48.670Z,81.00
2019-03-03T00:40:35.187Z,81.20
2019-03-03T00:43:05.140Z,81.30
2019-03-03T00:45:35.267Z,81.00
2019-03-03T00:48:21.790Z,81.10
2019-03-03T00:50:58.156Z,81.70
2019-03-03T00:53:31.384Z,82.20
2019-03-03T00:56:07.167Z,82.60
2019-03-03T00:58:43.584Z,82.70
2019-03-03T01:01:29.017Z,83.20
2019-03-03T01:04:14.198Z,83.30
2019-03-03T01:06:43.481Z,83.30
2019-03-03T01:09:19.359Z,83.50
2019-03-03T01:11:52.392Z,83.20
2019-03-03T01:14:22.542Z,83.50
2019-03-03T01:16:55.226Z,83.30
2019-03-03T01:19:37.523Z,83.40
2019-03-03T01:22:10.497Z,82.90
2019-03-03T01:24:55.760Z,82.90
2019-03-03T01:27:23.441Z,82.50
2019-03-03T01:29:51.956Z,82.50
2019-03-03T01:32:20.376Z,82.20
2019-03-03T01:34:48.700Z,81.40
2019-03-03T01:37:17.192Z,81.10
2019-03-03T01:39:45.589Z,81.00
2019-03-03T01:42:14.170Z,81.20
2019-03-03T01:44:42.509Z,81.10
2019-03-03T01:47:10.823Z,81.10
2019-03-03T01:49:39.421Z,81.10
2019-03-03T01:52:07.721Z,81.10
2019-03-03T01:54:36.315Z,81.00
2019-03-03T01:57:04.685Z,80.90
2019-03-03T01:59:33.181Z,80.70
2019-03-03T02:02:01.485Z,80.50
2019-03-03T02:04:29.816Z,80.10
2019-03-03T02:06:58.126Z,80.00
2019-03-03T02:09:26.605Z,80.40
2019-03-03T02:11:54.929Z,80.10
2019-03-03T02:14:23.237Z,80.20
2019-03-03T02:16:51.637Z,80.20
2019-03-03T02:19:20.088Z,80.00
2019-03-03T02:21:48.669Z,80.10
2019-03-03T02:24:17.491Z,80.00
2019-03-03T02:26:45.905Z,80.80
2019-03-03T02:29:14.512Z,79.90
2019-03-03T02:31:43.276Z,80.00
2019-03-03T02:34:11.599Z,80.90
2019-03-03T02:36:39.909Z,80.10
2019-03-03T02:39:16.100Z,80.20
2019-03-03T02:41:44.484Z,80.10
2019-03-03T02:44:12.802Z,80.10
2019-03-03T02:46:41.348Z,80.00
2019-03-03T02:49:09.836Z,80.10
2019-03-03T02:51:38.414Z,80.50
2019-03-03T02:54:06.881Z,80.40
2019-03-03T02:56:35.466Z,80.50
2019-03-03T02:59:04.207Z,80.40
2019-03-03T03:01:37.011Z,80.40
2019-03-03T03:04:05.313Z,80.20
2019-03-03T03:06:35.476Z,80.20
2019-03-03T03:09:08.503Z,80.10
2019-03-03T03:11:50.654Z,80.20
2019-03-03T03:14:32.724Z,80.30
2019-03-03T03:17:18.121Z,80.40
2019-03-03T03:19:48.332Z,80.40
2019-03-03T03:22:18.301Z,80.30
2019-03-03T03:24:54.760Z,80.50
2019-03-03T03:27:33.976Z,80.50
2019-03-03T03:30:04.088Z,80.70
2019-03-03T03:32:36.797Z,80.70
2019-03-03T03:35:11.421Z,80.80
2019-03-03T03:37:41.820Z,80.80
2019-03-03T03:40:21.259Z,80.70
2019-03-03T03:42:54.203Z,80.60
2019-03-03T03:45:24.350Z,80.80
2019-03-03T03:47:54.298Z,81.00
2019-03-03T03:50:24.351Z,80.90
2019-03-03T03:52:57.124Z,80.80
2019-03-03T03:55:27.162Z,81.10
2019-03-03T03:58:00.122Z,81.00
2019-03-03T04:00:39.050Z,81.00
2019-03-03T04:03:24.346Z,81.20
2019-03-03T04:05:53.617Z,81.00
2019-03-03T04:08:32.624Z,81.20
2019-03-03T04:11:08.558Z,81.10
2019-03-03T04:13:44.818Z,81.10
2019-03-03T04:16:14.818Z,81.10
2019-03-03T04:18:54.111Z,80.80
2019-03-03T04:21:33.477Z,80.80
2019-03-03T04:24:12.751Z,81.10
2019-03-03T04:26:48.191Z,80.70
2019-03-03T04:29:26.971Z,80.80
2019-03-03T04:32:13.252Z,80.80
2019-03-03T04:34:46.368Z,80.80
2019-03-03T04:37:16.437Z,81.00
2019-03-03T04:39:55.313Z,80.80
2019-03-03T04:42:33.833Z,81.00
2019-03-03T04:45:07.226Z,81.10
2019-03-03T04:47:37.457Z,81.00
2019-03-03T04:50:17.929Z,81.00
2019-03-03T04:52:48.072Z,81.00
2019-03-03T04:55:36.372Z,81.00
2019-03-03T04:58:15.301Z,81.10
2019-03-03T05:00:54.537Z,81.00
2019-03-03T05:03:24.508Z,81.10
2019-03-03T05:06:00.894Z,81.10
2019-03-03T05:08:43.165Z,81.20
2019-03-03T05:11:15.830Z,80.80
2019-03-03T05:13:48.910Z,80.70
2019-03-03T05:16:36.968Z,80.70
2019-03-03T05:19:07.209Z,80.50
2019-03-03T05:21:36.348Z,80.60
2019-03-03T05:24:04.956Z,80.20
2019-03-03T05:26:33.537Z,80.00
2019-03-03T05:29:02.324Z,80.20
2019-03-03T05:31:30.830Z,79.80
2019-03-03T05:33:59.398Z,78.90
2019-03-03T05:36:27.889Z,79.10
2019-03-03T05:38:56.237Z,78.90
2019-03-03T05:41:24.572Z,78.50
2019-03-03T05:43:52.957Z,78.70
2019-03-03T05:46:21.452Z,78.20
2019-03-03T05:48:50.036Z,77.90
2019-03-03T05:51:18.376Z,77.70
2019-03-03T05:53:46.749Z,77.80
2019-03-03T05:56:16.341Z,77.90
2019-03-03T05:58:45.131Z,77.90
2019-03-03T06:01:13.433Z,78.10
2019-03-03T06:03:42.109Z,78.20
2019-03-03T06:06:10.493Z,78.50
2019-03-03T06:08:39.098Z,78.50
2019-03-03T06:11:07.666Z,78.40
2019-03-03T06:13:36.260Z,78.50
2019-03-03T06:16:04.843Z,78.60
2019-03-03T06:18:33.441Z,78.60
2019-03-03T06:21:02.031Z,78.60
2019-03-03T06:23:30.356Z,78.60
2019-03-03T06:25:59.128Z,78.50
2019-03-03T06:28:27.441Z,78.30
2019-03-03T06:30:55.757Z,78.60
2019-03-03T06:33:24.139Z,78.60
2019-03-03T06:35:52.877Z,78.50
2019-03-03T06:38:21.650Z,78.40
2019-03-03T06:40:49.973Z,78.50
2019-03-03T06:43:18.294Z,78.60
2019-03-03T06:45:46.800Z,78.70
2019-03-03T06:48:15.211Z,78.50
2019-03-03T06:50:43.649Z,78.50
2019-03-03T06:53:11.973Z,78.20
2019-03-03T06:55:40.281Z,78.20
2019-03-03T06:58:08.887Z,78.30
2019-03-03T07:00:37.276Z,77.80
2019-03-03T07:03:06.107Z,78.20
2019-03-03T07:05:34.659Z,77.30
2019-03-03T07:08:03.064Z,76.60
2019-03-03T07:10:31.542Z,76.20
2019-03-03T07:12:59.873Z,76.50
2019-03-03T07:15:28.382Z,75.80
2019-03-03T07:17:56.851Z,75.30
2019-03-03T07:20:25.351Z,74.90
2019-03-03T07:22:53.654Z,74.90
2019-03-03T07:25:22.257Z,74.20
2019-03-03T07:27:50.650Z,73.50
2019-03-03T07:30:19.254Z,73.30
2019-03-03T07:33:04.240Z,73.30
2019-03-03T07:35:32.796Z,72.50
2019-03-03T07:38:01.115Z,71.30
2019-03-03T07:40:29.428Z,70.50
2019-03-03T07:42:57.936Z,70.60
2019-03-03T07:45:26.246Z,70.80
2019-03-03T07:47:55.010Z,69.90
2019-03-03T07:50:23.579Z,69.30
2019-03-03T07:52:51.909Z,68.90
2019-03-03T07:55:20.446Z,68.10
2019-03-03T07:57:48.768Z,67.70
2019-03-03T08:00:17.354Z,68.10
2019-03-03T08:02:45.972Z,65.90
2019-03-03T08:05:14.278Z,65.70
2019-03-03T08:07:43.050Z,65.80
2019-03-03T08:10:16.257Z,64.70
2019-03-03T08:12:44.835Z,65.30
2019-03-03T08:15:16.061Z,64.50
2019-03-03T08:17:44.395Z,64.70
2019-03-03T08:20:13.755Z,65.00
2019-03-03T08:22:42.238Z,64.20
2019-03-03T08:25:11.509Z,64.10
2019-03-03T08:27:39.957Z,64.00
2019-03-03T08:30:13.298Z,63.90
2019-03-03T08:32:41.969Z,63.20
2019-03-03T08:35:13.015Z,62.70
2019-03-03T08:37:41.373Z,61.40
2019-03-03T08:40:10.624Z,61.90
2019-03-03T08:42:59.131Z,60.80
2019-03-03T08:45:41.113Z,61.60
2019-03-03T08:48:17.095Z,61.50
2019-03-03T08:50:50.026Z,61.20
2019-03-03T08:53:22.839Z,60.40
2019-03-03T08:55:55.560Z,60.40
2019-03-03T08:58:25.577Z,60.70
2019-03-03T09:00:55.726Z,60.80
2019-03-03T09:03:44.088Z,60.90
2019-03-03T09:06:14.299Z,60.50
2019-03-03T09:08:44.254Z,60.50
2019-03-03T09:11:14.341Z,60.80
2019-03-03T09:13:53.078Z,60.30
2019-03-03T09:16:26.081Z,60.10
2019-03-03T09:19:12.683Z,60.40
2019-03-03T09:21:48.713Z,60.20
2019-03-03T09:24:24.722Z,60.20
2019-03-03T09:26:54.945Z,60.80
2019-03-03T09:29:24.945Z,59.50
2019-03-03T09:32:11.666Z,58.80
2019-03-03T09:34:54.018Z,58.60
2019-03-03T09:37:40.641Z,57.80
2019-03-03T09:40:18.618Z,58.20
2019-03-03T09:43:06.834Z,57.60
2019-03-03T09:45:44.379Z,58.00
2019-03-03T09:48:38.409Z,57.40
2019-03-03T09:51:14.467Z,57.50
2019-03-03T09:57:04.013Z,56.10
2019-03-03T09:59:42.877Z,56.50
2019-03-03T10:02:18.799Z,55.80
2019-03-03T10:04:51.465Z,55.80
2019-03-03T10:07:30.428Z,55.60
2019-03-03T10:10:03.385Z,55.60
2019-03-03T10:12:36.050Z,54.30
2019-03-03T10:15:08.157Z,54.40
2019-03-03T10:17:38.241Z,54.20
2019-03-03T10:20:26.820Z,53.50
2019-03-03T10:23:14.548Z,52.90
2019-03-03T10:25:44.680Z,51.30
2019-03-03T10:28:30.076Z,51.90
2019-03-03T10:30:59.350Z,50.00
2019-03-03T10:33:35.160Z,48.90
2019-03-03T10:36:05.288Z,48.40
2019-03-03T10:38:38.482Z,48.50
2019-03-03T10:41:11.080Z,48.20
2019-03-03T10:43:56.194Z,48.00
2019-03-03T10:46:26.307Z,46.50
2019-03-03T10:49:02.435Z,46.00
2019-03-03T10:51:38.718Z,46.90
2019-03-03T10:54:26.947Z,46.50
2019-03-03T10:57:03.007Z,46.50
2019-03-03T10:59:45.028Z,46.50
2019-03-03T11:02:21.260Z,44.60
2019-03-03T11:04:54.082Z,44.90
2019-03-03T11:07:27.040Z,44.90
2019-03-03T11:09:57.022Z,44.00
2019-03-03T11:12:26.982Z,44.40
2019-03-03T11:14:59.693Z,44.40
2019-03-03T11:17:38.847Z,44.50
2019-03-03T11:20:15.513Z,43.90
2019-03-03T11:23:02.187Z,43.40
2019-03-03T11:25:32.163Z,43.60
2019-03-03T11:28:02.200Z,44.10
2019-03-03T11:30:32.179Z,43.30
2019-03-03T11:33:18.874Z,44.00
2019-03-03T11:35:51.606Z,44.70
2019-03-03T11:38:21.584Z,43.90
2019-03-03T11:40:57.642Z,43.40
2019-03-03T11:43:46.049Z,43.80
2019-03-03T11:46:34.331Z,44.60
2019-03-03T11:49:14.046Z,44.50
2019-03-03T11:51:47.097Z,45.50
2019-03-03T11:54:23.288Z,45.90
2019-03-03T11:56:53.502Z,46.60
2019-03-03T11:59:29.461Z,46.50
2019-03-03T12:02:11.458Z,46.20
2019-03-03T12:04:41.713Z,46.00
2019-03-03T12:07:23.498Z,45.90
2019-03-03T12:09:59.284Z,46.50
2019-03-03T12:12:45.634Z,46.10
2019-03-03T12:15:19.393Z,46.70
2019-03-03T12:17:52.151Z,45.90
2019-03-03T12:20:22.208Z,45.20
2019-03-03T12:22:55.110Z,45.40
2019-03-03T12:25:25.239Z,45.10
2019-03-03T12:28:01.316Z,45.50
2019-03-03T12:30:34.229Z,45.90
2019-03-03T12:33:07.303Z,44.90
2019-03-03T12:35:37.437Z,43.90
2019-03-03T12:38:07.697Z,43.80
2019-03-03T12:40:40.376Z,44.60
2019-03-03T12:43:10.905Z,44.00
2019-03-03T12:45:49.896Z,43.80
2019-03-03T12:48:35.059Z,42.90
2019-03-03T12:51:08.229Z,43.20
2019-03-03T12:53:53.478Z,43.30
2019-03-03T12:56:29.302Z,42.10
2019-03-03T12:58:59.543Z,41.40
2019-03-03T13:01:35.644Z,39.70
2019-03-03T13:04:05.771Z,38.70
2019-03-03T13:06:36.178Z,36.80
2019-03-03T13:09:07.092Z,35.90
2019-03-03T13:11:53.665Z,36.80
2019-03-03T13:14:42.115Z,38.10
2019-03-03T13:17:27.636Z,39.10
2019-03-03T13:19:57.110Z,38.40
2019-03-03T13:22:27.297Z,38.70
2019-03-03T13:25:03.415Z,40.40
2019-03-03T13:27:36.361Z,40.70
2019-03-03T13:30:21.869Z,40.50
2019-03-03T13:32:51.980Z,40.40
2019-03-03T13:35:30.973Z,40.40
2019-03-03T13:38:03.889Z,38.60
2019-03-03T13:40:46.284Z,36.30
2019-03-03T13:43:14.851Z,36.60
2019-03-03T13:45:43.214Z,35.90
2019-03-03T13:48:11.763Z,35.60
2019-03-03T13:50:40.341Z,37.00
2019-03-03T13:53:08.792Z,38.70
2019-03-03T13:55:37.161Z,39.50
2019-03-03T13:58:05.671Z,39.90
2019-03-03T14:00:34.189Z,39.00
2019-03-03T14:03:02.583Z,35.20
2019-03-03T14:05:30.985Z,32.30
2019-03-03T14:07:59.292Z,30.30
2019-03-03T14:10:27.808Z,29.60
2019-03-03T14:12:56.389Z,30.10
2019-03-03T14:15:25.089Z,32.20
2019-03-03T14:17:53.478Z,35.50
2019-03-03T14:20:25.164Z,35.80
2019-03-03T14:22:53.981Z,35.00
2019-03-03T14:25:22.349Z,37.00
2019-03-03T14:27:50.806Z,38.90
2019-03-03T14:30:24.988Z,38.90
2019-03-03T14:32:53.604Z,40.00
2019-03-03T14:35:22.210Z,40.40
2019-03-03T14:37:50.802Z,41.10
2019-03-03T14:40:21.318Z,41.50
2019-03-03T14:42:49.707Z,41.80
2019-03-03T14:45:19.159Z,41.80
2019-03-03T14:47:47.572Z,41.10
2019-03-03T14:50:18.264Z,41.00
2019-03-03T14:52:48.260Z,41.40
2019-03-03T14:55:18.334Z,41.90
2019-03-03T15:00:31.796Z,42.30
2019-03-03T15:03:05.184Z,43.40
2019-03-03T15:05:34.481Z,43.40
2019-03-03T15:08:03.029Z,43.40
2019-03-03T15:10:31.581Z,43.60
2019-03-03T15:12:59.949Z,43.50
2019-03-03T15:15:33.738Z,43.30
2019-03-03T15:18:02.077Z,43.60
2019-03-03T15:20:30.470Z,43.40
2019-03-03T15:22:59.504Z,43.70
2019-03-03T15:25:28.636Z,43.70
2019-03-03T15:27:57.017Z,43.20
2019-03-03T15:30:25.400Z,43.70
2019-03-03T15:32:54.069Z,43.50
2019-03-03T15:35:22.801Z,43.20
2019-03-03T15:37:51.375Z,42.00
2019-03-03T15:40:24.729Z,41.90
2019-03-03T15:42:53.289Z,42.30
2019-03-03T15:45:26.769Z,42.00
2019-03-03T15:47:55.081Z,41.30
2019-03-03T15:50:23.677Z,41.40
2019-03-03T15:52:52.361Z,40.80
2019-03-03T15:55:31.943Z,40.90
2019-03-03T15:58:00.330Z,41.30
2019-03-03T16:00:31.274Z,41.20
2019-03-03T16:03:00.015Z,41.40
2019-03-03T16:05:28.718Z,41.60
2019-03-03T16:07:57.252Z,42.00
2019-03-03T16:10:27.184Z,42.30
2019-03-03T16:12:55.926Z,42.50
2019-03-03T16:15:24.915Z,42.40
2019-03-03T16:17:53.618Z,42.70
2019-03-03T16:20:25.394Z,43.00
2019-03-03T16:22:53.948Z,42.60
2019-03-03T16:25:23.902Z,43.90
2019-03-03T16:27:52.374Z,42.90
2019-03-03T16:30:22.303Z,43.00
2019-03-03T16:32:50.799Z,43.20
2019-03-03T16:35:23.874Z,43.30
2019-03-03T16:37:54.142Z,43.70
2019-03-03T16:40:26.219Z,43.80
2019-03-03T16:42:54.925Z,43.90
2019-03-03T16:45:23.634Z,44.20
2019-03-03T16:47:52.498Z,44.20
2019-03-03T16:50:24.355Z,44.20
2019-03-03T16:52:52.842Z,44.60
2019-03-03T16:55:21.654Z,44.80
2019-03-03T16:57:50.014Z,44.90
2019-03-03T17:00:24.702Z,45.10
2019-03-03T17:02:53.459Z,45.20
2019-03-03T17:05:25.377Z,45.40
2019-03-03T17:07:53.731Z,45.50
2019-03-03T17:10:22.347Z,45.70
2019-03-03T17:12:50.869Z,45.80
2019-03-03T17:15:24.076Z,45.90
2019-03-03T17:17:52.573Z,46.10
2019-03-03T17:20:21.470Z,46.40
2019-03-03T17:22:50.126Z,47.40
2019-03-03T17:25:26.389Z,46.70
2019-03-03T17:27:54.993Z,47.20
2019-03-03T17:30:24.812Z,47.30
2019-03-03T17:32:53.457Z,47.30
2019-03-03T17:35:21.840Z,47.20
2019-03-03T17:37:50.393Z,47.50
2019-03-03T17:40:23.317Z,47.50
2019-03-03T17:42:51.698Z,47.60
2019-03-03T17:45:21.612Z,47.90
2019-03-03T17:47:50.153Z,47.50
2019-03-03T17:50:29.393Z,47.90
2019-03-03T17:52:57.709Z,48.00
2019-03-03T17:55:26.035Z,47.90
2019-03-03T17:57:54.530Z,47.80
2019-03-03T18:00:43.743Z,47.60
2019-03-03T18:03:12.068Z,47.80
2019-03-03T18:05:49.509Z,47.50
2019-03-03T18:08:18.175Z,47.50
2019-03-03T18:10:46.811Z,47.50
2019-03-03T18:13:18.397Z,47.50
2019-03-03T18:15:46.858Z,47.50
2019-03-03T18:18:15.944Z,48.40
2019-03-03T18:20:44.430Z,47.70
2019-03-03T18:23:13.055Z,47.70
2019-03-03T18:25:41.615Z,47.90
2019-03-03T18:28:10.240Z,47.80
2019-03-03T18:30:39.146Z,47.70
2019-03-03T18:33:07.787Z,47.70
2019-03-03T18:35:36.229Z,47.90
2019-03-03T18:38:04.847Z,47.60
2019-03-03T18:40:33.328Z,47.80
2019-03-03T18:43:02.090Z,47.90
2019-03-03T18:45:31.046Z,47.90
2019-03-03T18:47:59.745Z,47.90
2019-03-03T18:50:29.552Z,48.00
2019-03-03T18:52:59.812Z,47.90
2019-03-03T18:55:28.537Z,48.20
2019-03-03T18:57:57.029Z,48.20
2019-03-03T19:00:27.032Z,48.10
2019-03-03T19:02:57.910Z,48.10
2019-03-03T19:05:25.603Z,47.90
2019-03-03T19:07:54.255Z,48.20
2019-03-03T19:10:27.988Z,47.90
2019-03-03T19:12:56.406Z,48.50
2019-03-03T19:15:25.303Z,48.60
2019-03-03T19:17:53.854Z,48.60
2019-03-03T19:20:24.386Z,48.70
2019-03-03T19:22:52.705Z,49.10
2019-03-03T19:25:21.180Z,49.70
2019-03-03T19:27:49.944Z,49.70
2019-03-03T19:30:28.551Z,49.80
2019-03-03T19:33:21.483Z,49.90
2019-03-03T19:35:49.841Z,50.10
2019-03-03T19:38:18.329Z,50.20
2019-03-03T19:40:46.672Z,50.30
2019-03-03T19:43:15.019Z,50.40
2019-03-03T19:45:48.687Z,50.80
2019-03-03T19:48:17.342Z,50.40
2019-03-03T19:50:45.808Z,50.50
2019-03-03T19:53:14.714Z,50.70
2019-03-03T19:55:43.096Z,50.70
2019-03-03T19:58:11.474Z,50.90
2019-03-03T20:00:43.536Z,51.00
2019-03-03T20:03:12.324Z,50.50
2019-03-03T20:05:40.979Z,50.60
2019-03-03T20:08:09.363Z,50.60
2019-03-03T20:10:37.924Z,51.00
2019-03-03T20:13:06.565Z,50.70
2019-03-03T20:15:35.905Z,50.90
2019-03-03T20:18:05.438Z,50.90
2019-03-03T20:20:33.770Z,50.80
2019-03-03T20:23:02.078Z,50.60
2019-03-03T20:25:30.703Z,51.30
2019-03-03T20:27:59.292Z,51.00
2019-03-03T20:30:27.908Z,51.20
2019-03-03T20:32:56.388Z,51.30
2019-03-03T20:35:24.794Z,51.30
2019-03-03T20:37:53.121Z,51.10
2019-03-03T20:40:23.956Z,51.40
2019-03-03T20:42:53.681Z,51.60
2019-03-03T20:45:28.968Z,51.70
2019-03-03T20:47:57.487Z,51.70
2019-03-03T20:50:25.811Z,51.60
2019-03-03T20:52:54.423Z,51.60
2019-03-03T20:55:25.629Z,51.10
2019-03-03T20:57:53.952Z,51.40
2019-03-03T21:00:27.669Z,51.10
2019-03-03T21:02:56.266Z,51.10
2019-03-03T21:05:24.918Z,51.40
2019-03-03T21:07:53.420Z,51.30
2019-03-03T21:10:26.106Z,50.90
2019-03-03T21:12:54.747Z,50.80
2019-03-03T21:15:23.384Z,50.80
2019-03-03T21:17:51.892Z,50.80
2019-03-03T21:20:21.199Z,50.80
2019-03-03T21:22:49.989Z,51.00
2019-03-03T21:25:19.213Z,50.80
2019-03-03T21:27:47.886Z,50.90
2019-03-03T21:30:26.673Z,50.90
2019-03-03T21:32:55.027Z,50.90
2019-03-03T21:35:23.510Z,51.00
2019-03-03T21:37:51.954Z,51.10
2019-03-03T21:40:25.222Z,51.00
2019-03-03T21:42:54.171Z,51.30
2019-03-03T21:45:27.289Z,51.30
2019-03-03T21:47:56.127Z,51.10
2019-03-03T21:50:31.139Z,51.90
2019-03-03T21:52:58.739Z,51.30
2019-03-03T21:55:27.205Z,51.70
2019-03-03T21:57:55.645Z,51.60
2019-03-03T22:00:33.230Z,51.70
2019-03-03T22:03:01.540Z,51.70
2019-03-03T22:05:30.242Z,51.90
2019-03-03T22:07:59.823Z,52.20
2019-03-03T22:10:31.621Z,52.40
2019-03-03T22:13:01.647Z,52.60
2019-03-03T22:15:30.001Z,52.80
2019-03-03T22:17:58.779Z,52.70
2019-03-03T22:20:27.169Z,52.90
2019-03-03T22:22:55.674Z,53.00
2019-03-03T22:25:23.979Z,52.80
2019-03-03T22:27:52.317Z,53.10
2019-03-03T22:30:20.702Z,53.20
2019-03-03T22:32:49.065Z,53.20
2019-03-03T22:35:18.109Z,53.20
2019-03-03T22:37:46.515Z,53.30
2019-03-03T22:40:17.429Z,53.20
2019-03-03T22:42:45.828Z,53.40
2019-03-03T22:45:16.662Z,53.50
2019-03-03T22:47:44.985Z,53.50
2019-03-03T22:50:17.480Z,53.60
2019-03-03T22:52:46.139Z,53.80
2019-03-03T22:55:15.681Z,53.70
2019-03-03T22:57:44.163Z,53.80
2019-03-03T23:00:54.917Z,54.00
2019-03-03T23:03:44.340Z,53.80
2019-03-03T23:06:21.638Z,53.90
2019-03-03T23:09:12.627Z,53.80
2019-03-03T23:12:05.073Z,53.90
2019-03-03T23:15:02.257Z,54.10
2019-03-03T23:17:36.608Z,53.90
2019-03-03T23:20:23.027Z,54.10
2019-03-03T23:23:21.185Z,54.10
2019-03-03T23:25:50.734Z,54.20
2019-03-03T23:28:19.453Z,54.00
2019-03-03T23:30:48.550Z,54.00
2019-03-03T23:33:17.586Z,53.90
2019-03-03T23:35:46.058Z,53.90
2019-03-03T23:38:14.893Z,53.80
2019-03-03T23:40:45.018Z,54.10
2019-03-03T23:43:13.507Z,53.90
2019-03-03T23:45:41.832Z,53.80
2019-03-03T23:48:10.201Z,53.90
2019-03-03T23:50:38.931Z,53.70
2019-03-03T23:53:07.874Z,53.70
2019-03-03T23:55:36.584Z,53.70
2019-03-03T23:58:05.281Z,53.50
